SHT21B EGJB-EGLL
Flight info
| Callsign | SHT21B |
|---|---|
| Flight time | N/A |
| Altitude | 19000 |
| Route | ORIST L982 ROXOG |
| Aircraft | A319/M-SDE3FGHIRWY/LB1 |
Departure
| Time | 2026-04-25 12:40 |
|---|---|
| Airport | Guernsey Airport (EGJB) |
Arrival
| Time | N/A |
|---|---|
| Airport | London Heathrow Airport (EGLL) |
| Time | Latitude | Longitude | Altitude | Speed | Heading |
|---|---|---|---|---|---|
| 2026-04-25 11:57 | 49.43254 | -2.59684 | 328 ft | 0 kts | 177° |
| 2026-04-25 12:31 | 49.43263 | -2.59685 | 328 ft | 4 kts | 177° |
| 2026-04-25 12:31 | 49.43290 | -2.59687 | 328 ft | 4 kts | 177° |
| 2026-04-25 12:31 | 49.43317 | -2.59687 | 328 ft | 4 kts | 187° |
| 2026-04-25 12:31 | 49.43339 | -2.59678 | 327 ft | 2 kts | 211° |
| 2026-04-25 12:32 | 49.43357 | -2.59653 | 327 ft | 4 kts | 249° |
| 2026-04-25 12:32 | 49.43362 | -2.59617 | 326 ft | 1 kts | 267° |
| 2026-04-25 12:32 | 49.43362 | -2.59616 | 326 ft | 1 kts | 267° |
| 2026-04-25 12:35 | 49.43362 | -2.59621 | 326 ft | 3 kts | 266° |
| 2026-04-25 12:35 | 49.43360 | -2.59688 | 328 ft | 8 kts | 267° |
| 2026-04-25 12:35 | 49.43347 | -2.59799 | 326 ft | 14 kts | 263° |
| 2026-04-25 12:35 | 49.43341 | -2.59987 | 315 ft | 22 kts | 267° |
| 2026-04-25 12:36 | 49.43334 | -2.60213 | 299 ft | 20 kts | 268° |
| 2026-04-25 12:36 | 49.43328 | -2.60462 | 294 ft | 26 kts | 268° |
| 2026-04-25 12:36 | 49.43340 | -2.60724 | 300 ft | 23 kts | 281° |
| 2026-04-25 12:36 | 49.43364 | -2.60938 | 308 ft | 16 kts | 276° |
| 2026-04-25 12:37 | 49.43361 | -2.61110 | 312 ft | 13 kts | 267° |
| 2026-04-25 12:37 | 49.43359 | -2.61185 | 313 ft | 2 kts | 266° |
| 2026-04-25 12:38 | 49.43359 | -2.61187 | 313 ft | 2 kts | 266° |
| 2026-04-25 12:39 | 49.43362 | -2.61243 | 313 ft | 11 kts | 286° |
| 2026-04-25 12:39 | 49.43413 | -2.61339 | 316 ft | 11 kts | 321° |
| 2026-04-25 12:39 | 49.43462 | -2.61319 | 315 ft | 8 kts | 83° |
| 2026-04-25 12:39 | 49.43467 | -2.61271 | 315 ft | 0 kts | 86° |
| 2026-04-25 12:40 | 49.43469 | -2.61201 | 314 ft | 35 kts | 88° |
| 2026-04-25 12:40 | 49.43494 | -2.60323 | 311 ft | 125 kts | 87° |
| 2026-04-25 12:40 | 49.43536 | -2.58728 | 760 ft | 154 kts | 87° |
| 2026-04-25 12:40 | 49.43580 | -2.57085 | 1692 ft | 155 kts | 88° |
| 2026-04-25 12:41 | 49.43630 | -2.55253 | 2026 ft | 194 kts | 88° |
| 2026-04-25 12:41 | 49.43689 | -2.53056 | 1988 ft | 212 kts | 88° |
| 2026-04-25 12:41 | 49.43838 | -2.50794 | 2001 ft | 215 kts | 71° |
| 2026-04-25 12:41 | 49.44711 | -2.48968 | 2010 ft | 216 kts | 34° |
| 2026-04-25 12:42 | 49.46128 | -2.48241 | 2015 ft | 217 kts | 8° |
| 2026-04-25 12:42 | 49.47099 | -2.47975 | 2013 ft | 217 kts | 12° |
| 2026-04-25 12:42 | 49.49111 | -2.47211 | 2521 ft | 238 kts | 14° |
| 2026-04-25 12:42 | 49.50783 | -2.46533 | 3168 ft | 258 kts | 14° |
| 2026-04-25 12:43 | 49.52552 | -2.45820 | 4179 ft | 264 kts | 12° |
| 2026-04-25 12:43 | 49.54366 | -2.45094 | 5294 ft | 268 kts | 13° |
| 2026-04-25 12:43 | 49.57989 | -2.43541 | 7295 ft | 279 kts | 24° |
| 2026-04-25 12:44 | 49.59608 | -2.41781 | 8259 ft | 284 kts | 39° |
| 2026-04-25 12:44 | 49.61096 | -2.39790 | 9210 ft | 289 kts | 40° |
| 2026-04-25 12:44 | 49.64201 | -2.35552 | 10420 ft | 311 kts | 40° |
| 2026-04-25 12:45 | 49.65883 | -2.33247 | 10800 ft | 332 kts | 40° |
| 2026-04-25 12:45 | 49.67632 | -2.30852 | 11528 ft | 339 kts | 40° |
| 2026-04-25 12:45 | 49.71204 | -2.25937 | 13128 ft | 348 kts | 41° |
| 2026-04-25 12:46 | 49.73000 | -2.23461 | 13934 ft | 353 kts | 40° |
| 2026-04-25 12:46 | 49.74824 | -2.20919 | 14609 ft | 358 kts | 40° |
| 2026-04-25 12:46 | 49.76717 | -2.18278 | 15336 ft | 362 kts | 41° |
| 2026-04-25 12:46 | 49.78593 | -2.15648 | 16028 ft | 366 kts | 41° |
| 2026-04-25 12:47 | 49.80489 | -2.12990 | 16744 ft | 369 kts | 40° |
| 2026-04-25 12:47 | 49.82399 | -2.10306 | 17440 ft | 373 kts | 41° |
| 2026-04-25 12:47 | 49.84330 | -2.07584 | 18144 ft | 377 kts | 41° |
| 2026-04-25 12:47 | 49.86241 | -2.04840 | 18788 ft | 381 kts | 41° |
| 2026-04-25 12:48 | 49.88183 | -2.02000 | 19099 ft | 384 kts | 42° |
| 2026-04-25 12:48 | 49.90117 | -1.99144 | 19185 ft | 383 kts | 42° |
| 2026-04-25 12:48 | 49.92036 | -1.96295 | 19202 ft | 381 kts | 42° |
| 2026-04-25 12:48 | 49.93975 | -1.93420 | 19207 ft | 380 kts | 42° |
| 2026-04-25 12:49 | 49.95861 | -1.90623 | 19218 ft | 380 kts | 42° |
| 2026-04-25 12:49 | 49.97779 | -1.87785 | 19215 ft | 380 kts | 42° |
| 2026-04-25 12:49 | 49.99755 | -1.85072 | 19215 ft | 379 kts | 35° |
| 2026-04-25 12:49 | 50.02046 | -1.82871 | 19215 ft | 377 kts | 25° |
| 2026-04-25 12:50 | 50.04327 | -1.81081 | 19218 ft | 377 kts | 25° |
| 2026-04-25 12:50 | 50.06679 | -1.79219 | 19220 ft | 376 kts | 25° |
| 2026-04-25 12:50 | 50.09027 | -1.77355 | 19220 ft | 376 kts | 25° |
| 2026-04-25 12:50 | 50.11351 | -1.75501 | 19220 ft | 377 kts | 26° |
| 2026-04-25 12:51 | 50.13511 | -1.73258 | 19218 ft | 379 kts | 37° |
| 2026-04-25 12:51 | 50.15568 | -1.70600 | 19223 ft | 379 kts | 38° |
| 2026-04-25 12:51 | 50.17571 | -1.68005 | 19223 ft | 379 kts | 38° |
| 2026-04-25 12:51 | 50.19625 | -1.65336 | 19232 ft | 379 kts | 38° |
| 2026-04-25 12:52 | 50.21654 | -1.62694 | 19228 ft | 379 kts | 38° |
| 2026-04-25 12:52 | 50.23680 | -1.60054 | 19230 ft | 380 kts | 38° |
| 2026-04-25 12:52 | 50.25758 | -1.57533 | 19229 ft | 378 kts | 31° |
| 2026-04-25 12:52 | 50.28067 | -1.55588 | 19230 ft | 376 kts | 24° |
| 2026-04-25 12:53 | 50.30416 | -1.53776 | 19230 ft | 376 kts | 24° |
| 2026-04-25 12:53 | 50.32758 | -1.51948 | 19233 ft | 376 kts | 24° |
| 2026-04-25 12:53 | 50.35097 | -1.50118 | 19233 ft | 376 kts | 24° |
| 2026-04-25 12:53 | 50.37113 | -1.48542 | 19233 ft | 376 kts | 24° |
| 2026-04-25 12:54 | 50.39462 | -1.46706 | 19233 ft | 376 kts | 24° |
| 2026-04-25 12:54 | 50.41035 | -1.45476 | 19233 ft | 376 kts | 24° |
| 2026-04-25 12:54 | 50.44067 | -1.43106 | 19238 ft | 376 kts | 24° |
| 2026-04-25 12:54 | 50.45656 | -1.41868 | 19237 ft | 376 kts | 24° |
| 2026-04-25 12:55 | 50.47953 | -1.40075 | 19196 ft | 370 kts | 24° |
| 2026-04-25 12:55 | 50.49502 | -1.38863 | 19047 ft | 365 kts | 24° |
| 2026-04-25 12:55 | 50.52518 | -1.36497 | 18733 ft | 360 kts | 24° |
| 2026-04-25 12:55 | 50.54674 | -1.34807 | 18502 ft | 358 kts | 24° |
| 2026-04-25 12:56 | 50.56855 | -1.33099 | 18241 ft | 356 kts | 24° |
| 2026-04-25 12:56 | 50.59070 | -1.31362 | 17973 ft | 355 kts | 24° |
| 2026-04-25 12:56 | 50.61273 | -1.29631 | 17703 ft | 353 kts | 24° |
| 2026-04-25 12:56 | 50.63476 | -1.27899 | 17439 ft | 352 kts | 24° |
| 2026-04-25 12:57 | 50.65660 | -1.26184 | 17181 ft | 350 kts | 24° |
| 2026-04-25 12:57 | 50.67835 | -1.24470 | 16920 ft | 349 kts | 25° |
| 2026-04-25 12:57 | 50.70003 | -1.22756 | 16594 ft | 348 kts | 25° |
| 2026-04-25 12:57 | 50.72031 | -1.21147 | 16258 ft | 346 kts | 25° |
| 2026-04-25 12:58 | 50.74186 | -1.19436 | 15902 ft | 344 kts | 25° |
| 2026-04-25 12:58 | 50.76325 | -1.17736 | 15556 ft | 342 kts | 25° |
| 2026-04-25 12:58 | 50.78449 | -1.16050 | 15209 ft | 340 kts | 25° |
| 2026-04-25 12:58 | 50.80553 | -1.14380 | 14867 ft | 338 kts | 25° |
| 2026-04-25 12:59 | 50.82625 | -1.12729 | 14541 ft | 337 kts | 25° |
| 2026-04-25 12:59 | 50.84581 | -1.11170 | 14231 ft | 335 kts | 25° |
| 2026-04-25 12:59 | 50.86533 | -1.09615 | 13906 ft | 334 kts | 25° |
| 2026-04-25 12:59 | 50.88595 | -1.07976 | 13537 ft | 331 kts | 25° |
| 2026-04-25 13:00 | 50.90574 | -1.06403 | 13130 ft | 327 kts | 25° |
| 2026-04-25 13:00 | 50.91910 | -1.05341 | 12835 ft | 326 kts | 25° |
| 2026-04-25 13:00 | 50.94569 | -1.03218 | 12265 ft | 322 kts | 25° |
| 2026-04-25 13:00 | 50.96526 | -1.01651 | 11850 ft | 319 kts | 25° |
| 2026-04-25 13:01 | 50.98532 | -1.00045 | 11414 ft | 317 kts | 25° |
| 2026-04-25 13:01 | 51.00418 | -0.98225 | 11002 ft | 315 kts | 37° |
| 2026-04-25 13:01 | 51.02003 | -0.95845 | 10592 ft | 314 kts | 47° |
| 2026-04-25 13:01 | 51.03443 | -0.93255 | 10194 ft | 312 kts | 47° |
| 2026-04-25 13:02 | 51.04882 | -0.90689 | 10005 ft | 301 kts | 47° |
| 2026-04-25 13:02 | 51.06247 | -0.88264 | 9827 ft | 292 kts | 47° |
| 2026-04-25 13:02 | 51.07587 | -0.85885 | 9523 ft | 289 kts | 47° |
| 2026-04-25 13:02 | 51.08939 | -0.83479 | 9166 ft | 287 kts | 47° |
| 2026-04-25 13:03 | 51.10265 | -0.81116 | 8799 ft | 285 kts | 47° |
| 2026-04-25 13:03 | 51.11582 | -0.78771 | 8464 ft | 283 kts | 47° |
| 2026-04-25 13:03 | 51.12891 | -0.76435 | 8226 ft | 282 kts | 47° |
| 2026-04-25 13:03 | 51.14195 | -0.74108 | 8219 ft | 283 kts | 47° |
| 2026-04-25 13:04 | 51.15503 | -0.71771 | 8221 ft | 283 kts | 47° |
| 2026-04-25 13:04 | 51.16798 | -0.69453 | 8220 ft | 283 kts | 47° |
| 2026-04-25 13:04 | 51.18104 | -0.67110 | 8225 ft | 283 kts | 47° |
| 2026-04-25 13:04 | 51.19447 | -0.64691 | 8218 ft | 283 kts | 47° |
| 2026-04-25 13:05 | 51.20710 | -0.62412 | 8222 ft | 283 kts | 47° |
| 2026-04-25 13:05 | 51.22020 | -0.60052 | 8222 ft | 283 kts | 47° |
| 2026-04-25 13:05 | 51.23321 | -0.57708 | 8215 ft | 278 kts | 47° |
| 2026-04-25 13:05 | 51.24578 | -0.55440 | 8216 ft | 264 kts | 47° |
| 2026-04-25 13:06 | 51.25758 | -0.53307 | 8218 ft | 253 kts | 47° |
| 2026-04-25 13:06 | 51.26915 | -0.51212 | 8223 ft | 250 kts | 47° |
| 2026-04-25 13:06 | 51.28067 | -0.49126 | 8221 ft | 250 kts | 47° |
| 2026-04-25 13:06 | 51.29208 | -0.47048 | 8114 ft | 248 kts | 49° |
| 2026-04-25 13:07 | 51.30046 | -0.44637 | 7830 ft | 249 kts | 69° |
| 2026-04-25 13:07 | 51.30611 | -0.42030 | 7548 ft | 248 kts | 71° |
| 2026-04-25 13:07 | 51.31144 | -0.39437 | 7305 ft | 247 kts | 71° |
| 2026-04-25 13:07 | 51.31678 | -0.36823 | 7210 ft | 246 kts | 71° |
| 2026-04-25 13:08 | 51.32210 | -0.34215 | 7219 ft | 247 kts | 71° |
| 2026-04-25 13:08 | 51.32742 | -0.31605 | 7193 ft | 247 kts | 71° |
| 2026-04-25 13:08 | 51.33271 | -0.29000 | 6920 ft | 245 kts | 71° |
| 2026-04-25 13:08 | 51.33797 | -0.26416 | 6623 ft | 244 kts | 71° |
| 2026-04-25 13:09 | 51.34314 | -0.23865 | 6234 ft | 244 kts | 71° |
| 2026-04-25 13:09 | 51.34841 | -0.21259 | 5849 ft | 242 kts | 71° |
| 2026-04-25 13:09 | 51.35361 | -0.18707 | 5483 ft | 241 kts | 71° |
| 2026-04-25 13:09 | 51.35883 | -0.16162 | 5104 ft | 240 kts | 71° |
| 2026-04-25 13:10 | 51.36401 | -0.13646 | 5006 ft | 238 kts | 71° |
| 2026-04-25 13:10 | 51.36922 | -0.11120 | 5016 ft | 240 kts | 71° |
| 2026-04-25 13:10 | 51.37441 | -0.08600 | 5006 ft | 233 kts | 71° |
| 2026-04-25 13:10 | 51.37943 | -0.06155 | 5007 ft | 230 kts | 71° |
| 2026-04-25 13:11 | 51.38441 | -0.03730 | 5011 ft | 230 kts | 71° |
| 2026-04-25 13:11 | 51.38942 | -0.01302 | 5022 ft | 229 kts | 71° |
| 2026-04-25 13:11 | 51.39637 | 0.00971 | 5005 ft | 228 kts | 47° |
| 2026-04-25 13:11 | 51.40931 | 0.02313 | 5010 ft | 226 kts | 14° |
| 2026-04-25 13:12 | 51.42482 | 0.02299 | 4913 ft | 221 kts | 341° |
| 2026-04-25 13:12 | 51.43734 | 0.00970 | 4526 ft | 219 kts | 309° |
| 2026-04-25 13:12 | 51.44612 | -0.01050 | 4163 ft | 218 kts | 302° |
| 2026-04-25 13:12 | 51.45144 | -0.02416 | 4012 ft | 214 kts | 301° |
| 2026-04-25 13:13 | 51.46169 | -0.05094 | 4003 ft | 210 kts | 301° |
| 2026-04-25 13:13 | 51.46913 | -0.07069 | 4005 ft | 210 kts | 298° |
| 2026-04-25 13:13 | 51.47292 | -0.09310 | 4009 ft | 210 kts | 274° |
| 2026-04-25 13:13 | 51.47383 | -0.11590 | 4020 ft | 196 kts | 274° |
| 2026-04-25 13:14 | 51.47463 | -0.13721 | 4002 ft | 189 kts | 273° |
| 2026-04-25 13:14 | 51.47530 | -0.15541 | 4002 ft | 189 kts | 274° |
| 2026-04-25 13:14 | 51.47689 | -0.17655 | 3663 ft | 192 kts | 276° |
| 2026-04-25 13:14 | 51.47774 | -0.19798 | 3149 ft | 194 kts | 272° |
| 2026-04-25 13:15 | 51.47796 | -0.21943 | 2781 ft | 190 kts | 270° |
| 2026-04-25 13:15 | 51.47799 | -0.24048 | 2488 ft | 188 kts | 270° |
| 2026-04-25 13:15 | 51.47799 | -0.26134 | 2227 ft | 186 kts | 270° |
| 2026-04-25 13:15 | 51.47796 | -0.28161 | 1982 ft | 177 kts | 270° |
| 2026-04-25 13:16 | 51.47793 | -0.30090 | 1752 ft | 171 kts | 270° |
| 2026-04-25 13:16 | 51.47790 | -0.31990 | 1518 ft | 170 kts | 270° |
| 2026-04-25 13:16 | 51.47787 | -0.33873 | 1288 ft | 169 kts | 270° |
| 2026-04-25 13:16 | 51.47784 | -0.35755 | 1062 ft | 168 kts | 270° |
| 2026-04-25 13:17 | 51.47780 | -0.37625 | 836 ft | 167 kts | 270° |
| 2026-04-25 13:17 | 51.47775 | -0.39485 | 609 ft | 166 kts | 269° |
| 2026-04-25 13:17 | 51.47771 | -0.41306 | 392 ft | 165 kts | 268° |
| 2026-04-25 13:17 | 51.47766 | -0.43151 | 169 ft | 165 kts | 268° |